createdAt,value
2023-04-06T00:02:08.904Z,101784.81
2023-04-06T00:04:35.441Z,101782.63
2023-04-06T00:07:01.951Z,101781.69
2023-04-06T00:09:28.409Z,101782.97
2023-04-06T00:11:54.852Z,101781.38
2023-04-06T00:14:21.935Z,101771.75
2023-04-06T00:16:48.473Z,101777.09
2023-04-06T00:19:16.736Z,101782.19
2023-04-06T00:21:43.682Z,101782.75
2023-04-06T00:24:10.368Z,101776.03
2023-04-06T00:26:36.832Z,101779.16
2023-04-06T00:29:03.610Z,101775.13
2023-04-06T00:31:30.121Z,101769.47
2023-04-06T00:33:56.662Z,101775.72
2023-04-06T00:36:23.178Z,101766.28
2023-04-06T00:38:49.718Z,101770.91
2023-04-06T00:41:16.206Z,101761.00
2023-04-06T00:43:42.650Z,101770.06
2023-04-06T00:46:09.166Z,101775.66
2023-04-06T00:48:35.754Z,101764.66
2023-04-06T00:51:02.697Z,101761.94
2023-04-06T00:53:29.141Z,101757.84
2023-04-06T00:55:55.584Z,101764.50
2023-04-06T00:58:22.101Z,101760.50
2023-04-06T01:00:48.580Z,101751.63
2023-04-06T01:03:15.116Z,101753.94
2023-04-06T01:05:41.802Z,101749.13
2023-04-06T01:08:08.722Z,101752.16
2023-04-06T01:10:35.369Z,101748.56
2023-04-06T01:13:01.846Z,101740.81
2023-04-06T01:15:29.673Z,101737.22
2023-04-06T01:17:56.108Z,101739.56
2023-04-06T01:20:22.654Z,101738.63
2023-04-06T01:22:49.121Z,101735.38
2023-04-06T01:25:15.598Z,101725.16
2023-04-06T01:27:42.235Z,101729.22
2023-04-06T01:30:08.933Z,101725.06
2023-04-06T01:32:35.402Z,101733.78
2023-04-06T01:35:02.033Z,101716.75
2023-04-06T01:37:30.450Z,101729.34
2023-04-06T01:39:56.914Z,101723.25
2023-04-06T01:42:23.382Z,101726.09
2023-04-06T01:44:49.844Z,101732.00
2023-04-06T01:47:16.282Z,101724.78
2023-04-06T01:49:42.711Z,101723.88
2023-04-06T01:52:09.244Z,101730.53
2023-04-06T01:54:35.725Z,101723.94
2023-04-06T01:57:02.190Z,101722.72
2023-04-06T01:59:28.646Z,101723.69
2023-04-06T02:01:55.137Z,101721.03
2023-04-06T02:04:22.364Z,101717.47
2023-04-06T02:06:48.898Z,101715.78
2023-04-06T02:09:15.632Z,101726.78
2023-04-06T02:11:42.113Z,101718.28
2023-04-06T02:14:08.621Z,101719.34
2023-04-06T02:16:35.120Z,101731.25
2023-04-06T02:19:01.866Z,101714.81
2023-04-06T02:21:28.313Z,101717.00
2023-04-06T02:23:54.947Z,101726.13
2023-04-06T02:26:21.763Z,101714.84
2023-04-06T02:28:48.270Z,101718.00
2023-04-06T02:31:16.088Z,101712.09
2023-04-06T02:33:42.593Z,101718.69
2023-04-06T02:36:09.176Z,101720.19
2023-04-06T02:38:35.629Z,101716.59
2023-04-06T02:41:02.113Z,101711.97
2023-04-06T02:43:28.574Z,101723.81
2023-04-06T02:45:55.448Z,101721.47
2023-04-06T02:48:21.933Z,101719.00
2023-04-06T02:50:48.413Z,101711.34
2023-04-06T02:53:14.865Z,101704.28
2023-04-06T02:55:41.381Z,101714.03
2023-04-06T02:58:07.880Z,101707.31
2023-04-06T03:00:34.362Z,101706.00
2023-04-06T03:03:00.861Z,101704.03
2023-04-06T03:05:27.548Z,101708.13
2023-04-06T03:07:53.996Z,101708.03
2023-04-06T03:10:20.445Z,101704.88
2023-04-06T03:12:46.974Z,101701.91
2023-04-06T03:15:13.437Z,101698.16
2023-04-06T03:17:40.081Z,101701.72
2023-04-06T03:20:06.893Z,101705.47
2023-04-06T03:22:33.331Z,101707.53
2023-04-06T03:25:01.004Z,101699.50
2023-04-06T03:27:29.596Z,101708.91
2023-04-06T03:29:56.347Z,101713.94
2023-04-06T03:32:22.854Z,101712.69
2023-04-06T03:34:49.399Z,101715.63
2023-04-06T03:37:15.829Z,101709.72
2023-04-06T03:39:42.287Z,101714.25
2023-04-06T03:42:08.756Z,101720.00
2023-04-06T03:44:35.547Z,101716.78
2023-04-06T03:47:03.279Z,101721.34
2023-04-06T03:49:29.739Z,101717.59
2023-04-06T03:51:57.664Z,101720.56
2023-04-06T03:54:24.763Z,101719.81
2023-04-06T03:56:51.606Z,101728.06
2023-04-06T03:59:18.429Z,101719.19
2023-04-06T04:01:44.918Z,101722.16
2023-04-06T04:04:11.768Z,101726.31
2023-04-06T04:06:38.259Z,101725.22
2023-04-06T04:09:04.696Z,101719.69
2023-04-06T04:11:31.153Z,101717.81
2023-04-06T04:13:57.724Z,101726.41
2023-04-06T04:16:24.524Z,101724.72
2023-04-06T04:18:51.414Z,101725.31
2023-04-06T04:21:18.332Z,101722.91
2023-04-06T04:23:44.975Z,101725.53
2023-04-06T04:26:11.752Z,101724.63
2023-04-06T04:28:38.461Z,101718.88
2023-04-06T04:31:05.060Z,101721.25
2023-04-06T04:33:31.597Z,101718.69
2023-04-06T04:35:58.212Z,101723.34
2023-04-06T04:38:24.702Z,101726.63
2023-04-06T04:40:51.210Z,101722.97
2023-04-06T04:43:17.710Z,101730.44
2023-04-06T04:45:44.246Z,101724.91
2023-04-06T04:48:11.792Z,101725.53
2023-04-06T04:50:38.353Z,101722.66
2023-04-06T04:53:07.008Z,101728.09
2023-04-06T04:55:33.498Z,101727.28
2023-04-06T04:57:59.953Z,101725.72
2023-04-06T05:00:26.758Z,101716.25
2023-04-06T05:02:53.357Z,101726.31
2023-04-06T05:05:19.961Z,101728.88
2023-04-06T05:07:46.714Z,101725.91
2023-04-06T05:10:13.306Z,101726.13
2023-04-06T05:12:39.793Z,101723.25
2023-04-06T05:15:06.810Z,101725.03
2023-04-06T05:17:33.624Z,101726.19
2023-04-06T05:20:00.962Z,101727.19
2023-04-06T05:22:27.477Z,101723.06
2023-04-06T05:24:53.912Z,101729.28
2023-04-06T05:27:20.550Z,101727.00
2023-04-06T05:29:47.073Z,101726.69
2023-04-06T05:32:13.597Z,101729.03
2023-04-06T05:34:40.153Z,101724.50
2023-04-06T05:37:06.681Z,101724.50
2023-04-06T05:39:33.207Z,101720.53
2023-04-06T05:41:59.685Z,101724.88
2023-04-06T05:44:26.567Z,101723.25
2023-04-06T05:46:53.045Z,101720.53
2023-04-06T05:49:19.568Z,101727.75
2023-04-06T05:51:46.037Z,101729.81
2023-04-06T05:54:12.511Z,101730.59
2023-04-06T05:56:39.001Z,101716.31
2023-04-06T05:59:05.538Z,101715.34
2023-04-06T06:01:32.070Z,101718.88
2023-04-06T06:03:58.521Z,101715.69
2023-04-06T06:09:20.072Z,101719.19
2023-04-06T06:14:29.688Z,101718.91
2023-04-06T06:16:56.160Z,101714.44
2023-04-06T06:19:22.646Z,101713.78
2023-04-06T06:21:49.106Z,101718.63
2023-04-06T06:24:15.562Z,101718.16
2023-04-06T06:26:42.126Z,101724.78
2023-04-06T06:29:08.807Z,101715.16
2023-04-06T06:31:36.371Z,101714.50
2023-04-06T06:34:03.016Z,101722.06
2023-04-06T06:36:31.652Z,101722.78
2023-04-06T06:38:59.310Z,101729.66
2023-04-06T06:41:27.138Z,101727.38
2023-04-06T06:43:53.773Z,101721.91
2023-04-06T06:46:21.648Z,101723.72
2023-04-06T06:48:50.348Z,101725.19
2023-04-06T06:51:16.806Z,101715.38
2023-04-06T06:53:43.289Z,101720.16
2023-04-06T06:56:09.772Z,101720.88
2023-04-06T06:58:36.252Z,101722.66
2023-04-06T07:01:06.870Z,101713.44
2023-04-06T07:03:33.478Z,101716.84
2023-04-06T07:06:00.165Z,101719.03
2023-04-06T07:08:26.727Z,101718.50
2023-04-06T07:10:54.004Z,101712.78
2023-04-06T07:13:24.357Z,101717.88
2023-04-06T07:15:51.242Z,101722.09
2023-04-06T07:18:18.529Z,101718.19
2023-04-06T07:20:45.226Z,101720.63
2023-04-06T07:23:11.757Z,101716.47
2023-04-06T07:25:38.508Z,101709.41
2023-04-06T07:28:05.103Z,101707.88
2023-04-06T07:30:32.664Z,101701.94
2023-04-06T07:33:00.682Z,101700.59
2023-04-06T07:35:28.161Z,101695.38
2023-04-06T07:38:15.481Z,101707.34
2023-04-06T07:40:41.983Z,101700.06
2023-04-06T07:43:08.486Z,101701.44
2023-04-06T07:45:34.936Z,101691.81
2023-04-06T07:48:01.439Z,101696.50
2023-04-06T07:50:27.962Z,101702.09
2023-04-06T07:52:55.090Z,101699.16
2023-04-06T07:55:26.845Z,101692.47
2023-04-06T07:57:53.342Z,101694.69
2023-04-06T08:00:23.395Z,101688.34
2023-04-06T08:02:50.100Z,101689.78
2023-04-06T08:05:17.127Z,101695.06
2023-04-06T08:07:44.752Z,101686.81
2023-04-06T08:10:11.492Z,101683.06
2023-04-06T08:12:42.670Z,101684.47
2023-04-06T08:15:49.466Z,101695.44
2023-04-06T08:18:19.504Z,101690.91
2023-04-06T08:20:46.029Z,101684.28
2023-04-06T08:23:12.523Z,101685.69
2023-04-06T08:25:43.225Z,101681.16
2023-04-06T08:28:10.552Z,101677.63
2023-04-06T08:30:42.926Z,101671.94
2023-04-06T08:33:14.402Z,101677.81
2023-04-06T08:35:45.154Z,101666.72
2023-04-06T08:38:24.430Z,101664.72
2023-04-06T08:41:00.409Z,101664.22
2023-04-06T08:43:29.548Z,101657.66
2023-04-06T08:46:19.700Z,101661.59
2023-04-06T08:48:47.626Z,101667.03
2023-04-06T08:51:18.584Z,101656.28
2023-04-06T09:00:44.067Z,101653.59
2023-04-06T09:03:25.041Z,101652.22
2023-04-06T09:12:34.428Z,101653.97
2023-04-06T09:18:56.915Z,101652.94
2023-04-06T09:21:25.922Z,101651.47
2023-04-06T09:24:03.099Z,101646.38
2023-04-06T09:26:32.210Z,101646.25
2023-04-06T09:32:31.705Z,101632.69
2023-04-06T09:35:36.458Z,101639.91
2023-04-06T09:38:24.256Z,101643.50
2023-04-06T09:41:01.182Z,101630.84
2023-04-06T09:43:28.640Z,101631.47
2023-04-06T09:45:56.667Z,101616.69
2023-04-06T09:48:23.556Z,101625.13
2023-04-06T09:50:51.490Z,101619.00
2023-04-06T09:53:20.573Z,101620.75
2023-04-06T09:55:48.753Z,101618.19
2023-04-06T09:58:27.801Z,101619.53
2023-04-06T10:01:20.882Z,101617.38
2023-04-06T10:03:57.034Z,101614.75
2023-04-06T10:06:26.391Z,101607.69
2023-04-06T10:08:55.681Z,101604.50
2023-04-06T10:11:22.201Z,101601.84
2023-04-06T10:13:49.785Z,101609.72
2023-04-06T10:16:16.796Z,101600.94
2023-04-06T10:18:47.826Z,101603.75
2023-04-06T10:21:17.463Z,101606.81
2023-04-06T10:23:53.445Z,101602.97
2023-04-06T10:26:23.032Z,101603.94
2023-04-06T10:29:03.090Z,101609.63
2023-04-06T10:31:31.564Z,101611.59
2023-04-06T10:34:00.109Z,101611.81
2023-04-06T10:36:29.150Z,101616.41
2023-04-06T10:39:00.961Z,101599.72
2023-04-06T10:41:44.556Z,101607.47
2023-04-06T10:44:31.308Z,101602.63
2023-04-06T10:47:01.431Z,101603.50
2023-04-06T10:49:28.020Z,101607.53
2023-04-06T10:51:55.968Z,101599.63
2023-04-06T10:54:23.783Z,101599.13
2023-04-06T10:56:50.301Z,101596.53
2023-04-06T10:59:23.321Z,101589.38
2023-04-06T11:01:50.216Z,101590.66
2023-04-06T11:04:19.048Z,101591.56
2023-04-06T11:06:49.768Z,101590.84
2023-04-06T11:09:29.202Z,101581.81
2023-04-06T11:11:57.090Z,101584.66
2023-04-06T11:14:24.130Z,101583.16
2023-04-06T11:16:51.189Z,101569.59
2023-04-06T11:19:18.437Z,101564.28
2023-04-06T11:21:49.487Z,101580.81
2023-04-06T11:24:20.188Z,101577.44
2023-04-06T11:26:49.488Z,101571.47
2023-04-06T11:29:17.475Z,101573.75
2023-04-06T11:31:47.340Z,101565.03
2023-04-06T11:34:17.415Z,101567.38
2023-04-06T11:36:45.492Z,101567.25
2023-04-06T11:39:19.166Z,101569.47
2023-04-06T11:41:53.885Z,101565.28
2023-04-06T11:44:41.053Z,101559.94
2023-04-06T11:47:09.410Z,101562.63
2023-04-06T11:49:38.603Z,101560.53
2023-04-06T11:52:16.091Z,101553.22
2023-04-06T11:54:42.588Z,101553.22
2023-04-06T11:57:09.443Z,101557.75
2023-04-06T11:59:36.888Z,101557.81
2023-04-06T12:02:04.701Z,101549.03
2023-04-06T12:04:31.492Z,101549.72
2023-04-06T12:06:58.565Z,101550.50
2023-04-06T12:09:25.323Z,101546.03
2023-04-06T12:11:51.786Z,101551.47
2023-04-06T12:14:18.333Z,101543.44
2023-04-06T12:16:44.903Z,101545.56
2023-04-06T12:19:11.517Z,101548.56
2023-04-06T12:21:38.418Z,101552.22
2023-04-06T12:24:06.334Z,101544.22
2023-04-06T12:26:33.408Z,101549.50
2023-04-06T12:29:07.554Z,101539.25
2023-04-06T12:31:36.058Z,101540.19
2023-04-06T12:34:04.119Z,101536.66
2023-04-06T12:36:30.732Z,101534.16
2023-04-06T12:38:57.180Z,101534.00
2023-04-06T12:41:23.971Z,101528.56
2023-04-06T12:43:53.368Z,101529.28
2023-04-06T12:46:20.879Z,101525.19
2023-04-06T12:48:47.410Z,101522.44
2023-04-06T12:51:13.880Z,101526.19
2023-04-06T12:53:40.467Z,101524.88
2023-04-06T12:56:15.062Z,101524.38
2023-04-06T12:58:44.474Z,101518.69
2023-04-06T13:01:12.606Z,101519.47
2023-04-06T13:03:39.599Z,101504.69
2023-04-06T13:06:06.415Z,101507.22
2023-04-06T13:08:32.952Z,101514.59
2023-04-06T13:10:59.440Z,101513.09
2023-04-06T13:13:29.912Z,101510.81
2023-04-06T13:16:04.387Z,101518.19
2023-04-06T13:18:32.479Z,101510.59
2023-04-06T13:21:00.495Z,101497.75
2023-04-06T13:23:27.695Z,101508.25
2023-04-06T13:26:01.619Z,101503.16
2023-04-06T13:28:28.802Z,101504.72
2023-04-06T13:30:56.379Z,101490.66
2023-04-06T13:33:23.206Z,101497.56
2023-04-06T13:35:49.672Z,101492.78
2023-04-06T13:38:17.041Z,101499.06
2023-04-06T13:40:43.647Z,101495.34
2023-04-06T13:43:10.177Z,101480.72
2023-04-06T13:45:37.763Z,101483.41
2023-04-06T13:48:04.544Z,101482.59
2023-04-06T13:50:31.093Z,101482.63
2023-04-06T13:52:57.567Z,101480.72
2023-04-06T13:55:27.153Z,101482.78
2023-04-06T13:57:53.718Z,101489.31
2023-04-06T14:00:20.440Z,101485.91
2023-04-06T14:02:47.073Z,101483.91
2023-04-06T14:05:13.801Z,101483.13
2023-04-06T14:07:41.203Z,101470.09
2023-04-06T14:10:14.704Z,101482.72
2023-04-06T14:12:47.556Z,101481.06
2023-04-06T14:15:14.097Z,101477.63
2023-04-06T14:17:40.698Z,101473.91
2023-04-06T14:20:07.949Z,101474.66
2023-04-06T14:22:34.402Z,101478.88
2023-04-06T14:25:00.858Z,101478.50
2023-04-06T14:27:27.302Z,101475.38
2023-04-06T14:29:55.032Z,101473.75
2023-04-06T14:32:22.612Z,101455.38
2023-04-06T14:34:49.114Z,101462.38
2023-04-06T14:37:15.648Z,101464.81
2023-04-06T14:39:42.135Z,101469.88
2023-04-06T14:42:08.591Z,101469.63
2023-04-06T14:44:37.616Z,101472.25
2023-04-06T14:47:06.335Z,101467.22
2023-04-06T14:49:33.089Z,101460.53
2023-04-06T14:52:00.475Z,101469.91
2023-04-06T14:54:26.964Z,101460.59
2023-04-06T14:56:53.427Z,101456.94
2023-04-06T14:59:19.859Z,101449.03
2023-04-06T15:01:46.613Z,101456.22
2023-04-06T15:04:13.319Z,101451.78
2023-04-06T15:06:39.908Z,101446.25
2023-04-06T15:09:06.410Z,101447.22
2023-04-06T15:11:32.881Z,101442.28
2023-04-06T15:14:01.413Z,101448.25
2023-04-06T15:16:28.215Z,101453.09
2023-04-06T15:18:54.749Z,101456.13
2023-04-06T15:21:21.613Z,101454.94
2023-04-06T15:23:48.384Z,101459.25
2023-04-06T15:26:15.513Z,101449.53
2023-04-06T15:28:42.103Z,101451.31
2023-04-06T15:33:48.567Z,101447.94
2023-04-06T15:36:33.994Z,101446.59
2023-04-06T15:39:01.671Z,101447.25
2023-04-06T15:41:28.540Z,101456.03
2023-04-06T15:43:55.777Z,101448.25
2023-04-06T15:46:22.565Z,101448.84
2023-04-06T15:48:49.156Z,101450.25
2023-04-06T15:51:17.673Z,101443.44
2023-04-06T15:53:44.951Z,101448.47
2023-04-06T15:56:11.726Z,101443.34
2023-04-06T15:58:38.260Z,101445.84
2023-04-06T16:01:12.941Z,101442.66
2023-04-06T16:03:39.729Z,101444.16
2023-04-06T16:06:08.878Z,101443.59
2023-04-06T16:08:36.781Z,101453.09
2023-04-06T16:11:03.721Z,101454.63
2023-04-06T16:13:30.295Z,101455.09
2023-04-06T16:15:56.913Z,101447.47
2023-04-06T16:18:23.468Z,101456.25
2023-04-06T16:20:50.046Z,101450.81
2023-04-06T16:23:16.607Z,101446.16
2023-04-06T16:25:43.068Z,101454.69
2023-04-06T16:28:09.571Z,101451.66
2023-04-06T16:30:40.500Z,101450.72
2023-04-06T16:33:09.903Z,101452.88
2023-04-06T16:35:36.777Z,101456.06
2023-04-06T16:38:03.242Z,101446.91
2023-04-06T16:40:29.763Z,101447.63
2023-04-06T16:42:56.206Z,101456.31
2023-04-06T16:45:22.757Z,101453.50
2023-04-06T16:47:50.484Z,101460.34
2023-04-06T16:50:17.553Z,101448.44
2023-04-06T16:52:44.281Z,101453.09
2023-04-06T16:55:11.323Z,101458.31
2023-04-06T16:57:37.803Z,101459.69
2023-04-06T17:00:06.043Z,101459.69
2023-04-06T17:02:36.136Z,101454.03
2023-04-06T17:05:04.105Z,101454.97
2023-04-06T17:07:35.523Z,101456.72
2023-04-06T17:10:03.648Z,101457.81
2023-04-06T17:12:30.175Z,101464.69
2023-04-06T17:14:58.155Z,101457.31
2023-04-06T17:17:24.731Z,101468.00
2023-04-06T17:19:51.243Z,101465.78
2023-04-06T17:22:20.891Z,101456.31
2023-04-06T17:24:48.670Z,101457.59
2023-04-06T17:27:15.930Z,101461.25
2023-04-06T17:29:42.556Z,101461.53
2023-04-06T17:32:09.152Z,101467.09
2023-04-06T17:34:35.766Z,101465.94
2023-04-06T17:37:02.644Z,101472.91
2023-04-06T17:39:29.086Z,101474.78
2023-04-06T17:41:55.623Z,101478.66
2023-04-06T17:44:22.093Z,101480.25
2023-04-06T17:46:48.819Z,101487.72
2023-04-06T17:49:15.410Z,101483.41
2023-04-06T17:51:41.977Z,101484.16
2023-04-06T17:54:08.433Z,101489.03
2023-04-06T17:56:34.920Z,101493.16
2023-04-06T17:59:01.358Z,101497.50
2023-04-06T18:01:28.091Z,101499.13
2023-04-06T18:03:54.745Z,101504.72
2023-04-06T18:06:25.119Z,101504.69
2023-04-06T18:08:52.370Z,101501.84
2023-04-06T18:11:21.436Z,101508.72
2023-04-06T18:13:47.988Z,101508.00
2023-04-06T18:16:16.413Z,101508.75
2023-04-06T18:18:43.077Z,101502.31
2023-04-06T18:21:09.580Z,101510.28
2023-04-06T18:23:37.695Z,101509.56
2023-04-06T18:26:05.586Z,101517.41
2023-04-06T18:28:32.286Z,101515.53
2023-04-06T18:30:59.728Z,101526.88
2023-04-06T18:33:29.135Z,101524.22
2023-04-06T18:35:56.743Z,101532.38
2023-04-06T18:38:24.151Z,101529.28
2023-04-06T18:40:50.676Z,101526.63
2023-04-06T18:43:17.165Z,101535.94
2023-04-06T18:45:43.699Z,101526.84
2023-04-06T18:48:10.496Z,101526.47
2023-04-06T18:50:37.129Z,101534.03
2023-04-06T18:53:04.186Z,101533.66
2023-04-06T18:55:33.790Z,101543.47
2023-04-06T18:58:00.600Z,101536.19
2023-04-06T19:00:27.141Z,101540.56
2023-04-06T19:02:54.091Z,101545.63
2023-04-06T19:05:22.517Z,101551.66
2023-04-06T19:07:52.680Z,101553.91
2023-04-06T19:10:21.426Z,101552.56
2023-04-06T19:12:48.944Z,101553.66
2023-04-06T19:15:15.701Z,101554.06
2023-04-06T19:17:42.544Z,101559.41
2023-04-06T19:20:09.597Z,101561.75
2023-04-06T19:22:37.742Z,101557.94
2023-04-06T19:25:07.235Z,101559.97
2023-04-06T19:27:34.132Z,101566.25
2023-04-06T19:30:01.710Z,101555.09
2023-04-06T19:32:30.238Z,101567.97
2023-04-06T19:34:56.966Z,101562.41
2023-04-06T19:37:23.525Z,101571.06
2023-04-06T19:39:50.497Z,101565.88
2023-04-06T19:42:21.990Z,101568.09
2023-04-06T19:44:48.643Z,101566.06
2023-04-06T19:47:15.478Z,101566.41
2023-04-06T19:49:42.066Z,101567.97
2023-04-06T19:52:10.092Z,101570.03
2023-04-06T19:54:39.554Z,101582.88
2023-04-06T19:57:06.219Z,101576.75
2023-04-06T19:59:34.412Z,101578.63
2023-04-06T20:02:01.139Z,101573.63
2023-04-06T20:04:27.820Z,101572.28
2023-04-06T20:06:54.377Z,101572.13
2023-04-06T20:09:21.774Z,101579.84
2023-04-06T20:11:48.226Z,101578.66
2023-04-06T20:14:15.602Z,101575.69
2023-04-06T20:16:42.108Z,101578.66
2023-04-06T20:19:08.708Z,101581.81
2023-04-06T20:21:36.283Z,101578.47
2023-04-06T20:24:04.226Z,101571.06
2023-04-06T20:26:30.903Z,101578.44
2023-04-06T20:28:57.403Z,101575.88
2023-04-06T20:31:27.710Z,101577.16
2023-04-06T20:33:54.659Z,101578.34
2023-04-06T20:36:22.297Z,101576.91
2023-04-06T20:38:48.893Z,101577.88
2023-04-06T20:41:19.153Z,101582.22
2023-04-06T20:43:45.834Z,101575.97
2023-04-06T20:46:17.084Z,101576.78
2023-04-06T20:48:44.019Z,101578.69
2023-04-06T20:51:18.190Z,101572.22
2023-04-06T20:53:44.706Z,101575.09
2023-04-06T20:56:11.428Z,101580.56
2023-04-06T20:58:37.898Z,101573.78
2023-04-06T21:01:04.451Z,101574.22
2023-04-06T21:03:31.052Z,101570.91
2023-04-06T21:05:59.012Z,101578.00
2023-04-06T21:08:25.663Z,101575.69
2023-04-06T21:10:52.133Z,101568.63
2023-04-06T21:13:18.645Z,101570.72
2023-04-06T21:15:45.198Z,101573.31
2023-04-06T21:18:12.364Z,101573.44
2023-04-06T21:20:39.937Z,101570.19
2023-04-06T21:23:06.447Z,101575.59
2023-04-06T21:25:32.878Z,101574.59
2023-04-06T21:27:59.338Z,101575.97
2023-04-06T21:30:25.821Z,101569.59
2023-04-06T21:32:52.372Z,101569.97
2023-04-06T21:35:18.900Z,101575.03
2023-04-06T21:37:45.479Z,101569.50
2023-04-06T21:40:12.960Z,101564.00
2023-04-06T21:42:39.504Z,101577.03
2023-04-06T21:45:06.451Z,101581.06
2023-04-06T21:47:34.929Z,101568.34
2023-04-06T21:50:01.498Z,101587.28
2023-04-06T21:52:27.970Z,101570.47
2023-04-06T21:54:54.466Z,101577.09
2023-04-06T21:57:21.111Z,101565.13
2023-04-06T21:59:48.012Z,101564.19
2023-04-06T22:02:14.725Z,101567.56
2023-04-06T22:04:41.397Z,101572.75
2023-04-06T22:07:08.047Z,101561.69
2023-04-06T22:09:35.236Z,101562.44
2023-04-06T22:12:02.033Z,101564.97
2023-04-06T22:14:30.188Z,101561.38
2023-04-06T22:16:57.590Z,101563.31
2023-04-06T22:19:24.071Z,101567.81
2023-04-06T22:21:50.929Z,101567.97
2023-04-06T22:24:17.818Z,101572.50
2023-04-06T22:26:44.509Z,101566.91
2023-04-06T22:29:10.991Z,101560.84
2023-04-06T22:31:37.473Z,101572.78
2023-04-06T22:34:04.015Z,101561.06
2023-04-06T22:36:31.810Z,101560.47
2023-04-06T22:38:58.290Z,101562.09
2023-04-06T22:41:24.801Z,101568.47
2023-04-06T22:43:51.265Z,101571.34
2023-04-06T22:46:17.796Z,101568.69
2023-04-06T22:48:44.249Z,101566.78
2023-04-06T22:51:10.695Z,101585.38
2023-04-06T22:53:37.198Z,101586.47
2023-04-06T22:56:03.726Z,101579.19
2023-04-06T22:58:30.327Z,101582.44
2023-04-06T23:00:56.861Z,101584.06
2023-04-06T23:03:23.477Z,101588.06
2023-04-06T23:05:50.019Z,101577.78
2023-04-06T23:08:16.518Z,101580.06
2023-04-06T23:10:43.008Z,101580.75
2023-04-06T23:13:10.381Z,101579.75
2023-04-06T23:15:37.046Z,101586.75
2023-04-06T23:18:03.720Z,101591.19
2023-04-06T23:20:30.325Z,101595.66
2023-04-06T23:22:56.769Z,101587.28
2023-04-06T23:25:23.323Z,101586.09
2023-04-06T23:27:49.762Z,101585.53
2023-04-06T23:30:16.377Z,101588.53
2023-04-06T23:32:42.970Z,101586.34
2023-04-06T23:35:09.701Z,101586.03
2023-04-06T23:37:36.281Z,101583.97
2023-04-06T23:40:03.080Z,101588.53
2023-04-06T23:42:29.524Z,101584.84
2023-04-06T23:44:56.155Z,101590.09
2023-04-06T23:47:22.689Z,101592.44
2023-04-06T23:49:49.227Z,101585.47
2023-04-06T23:52:15.671Z,101578.91
2023-04-06T23:54:42.122Z,101584.81
2023-04-06T23:57:08.593Z,101587.28
2023-04-06T23:59:35.334Z,101592.75
